Time,TemperatureF,DewpointF,PressureIn,WindDirection,WindDirectionDegrees,WindSpeedMPH,WindSpeedGustMPH,Humidity,HourlyPrecipIn,Conditions,Clouds,dailyrainin,SolarRadiationWatts/m^2,SoftwareType,DateUTC
2013-03-14 00:01:00,52.0,10.0,-100.00,NNE,32,5.0,7.0,18,0.00,,,0.00,0.000000,,2013-03-14 06:01:00,
2013-03-14 00:33:00,52.0,10.0,-100.00,NNE,32,5.0,7.0,18,0.00,,,0.00,0.000000,,2013-03-14 06:33:00,
2013-03-14 00:42:00,52.0,10.0,-100.00,NNE,32,5.0,7.0,18,0.00,,,0.00,0.000000,,2013-03-14 06:42:00,
2013-03-14 00:52:00,52.0,10.0,-100.00,NNE,32,5.0,7.0,18,0.00,,,0.00,0.000000,,2013-03-14 06:52:00,
2013-03-14 01:01:00,51.0,8.0,-100.00,NNE,28,5.0,8.0,17,0.00,,,0.00,0.000000,,2013-03-14 07:01:00,
2013-03-14 01:22:00,51.0,8.0,-100.00,NNE,28,5.0,8.0,17,0.00,,,0.00,0.000000,,2013-03-14 07:22:00,
2013-03-14 01:32:00,51.0,8.0,-100.00,NNE,28,5.0,8.0,17,0.00,,,0.00,0.000000,,2013-03-14 07:32:00,
2013-03-14 01:43:00,51.0,8.0,-100.00,NNE,28,5.0,8.0,17,0.00,,,0.00,0.000000,,2013-03-14 07:43:00,
2013-03-14 01:52:00,51.0,8.0,-100.00,NNE,28,5.0,8.0,17,0.00,,,0.00,0.000000,,2013-03-14 07:52:00,
2013-03-14 02:01:00,49.0,5.0,-100.00,North,359,4.0,9.0,16,0.00,,,0.00,0.000000,,2013-03-14 08:01:00,
2013-03-14 02:32:00,49.0,5.0,-100.00,North,359,4.0,9.0,16,0.00,,,0.00,0.000000,,2013-03-14 08:32:00,
2013-03-14 02:42:00,49.0,5.0,-100.00,North,359,4.0,9.0,16,0.00,,,0.00,0.000000,,2013-03-14 08:42:00,
2013-03-14 02:52:00,49.0,5.0,-100.00,North,359,4.0,9.0,16,0.00,,,0.00,0.000000,,2013-03-14 08:52:00,
2013-03-14 03:01:00,49.0,7.0,-100.00,NNE,25,4.0,7.0,18,0.00,,,0.00,0.000000,,2013-03-14 09:01:00,
2013-03-14 03:32:00,49.0,7.0,-100.00,NNE,25,4.0,7.0,18,0.00,,,0.00,0.000000,,2013-03-14 09:32:00,
2013-03-14 03:42:00,49.0,7.0,-100.00,NNE,25,4.0,7.0,18,0.00,,,0.00,0.000000,,2013-03-14 09:42:00,
2013-03-14 03:52:00,49.0,7.0,-100.00,NNE,25,4.0,7.0,18,0.00,,,0.00,0.000000,,2013-03-14 09:52:00,
2013-03-14 04:01:00,48.0,5.0,-100.00,WNW,291,1.0,8.0,17,0.00,,,0.00,0.000000,,2013-03-14 10:01:00,
2013-03-14 04:32:00,48.0,5.0,-100.00,WNW,291,1.0,8.0,17,0.00,,,0.00,0.000000,,2013-03-14 10:32:00,
2013-03-14 04:42:00,48.0,5.0,-100.00,WNW,291,1.0,8.0,17,0.00,,,0.00,0.000000,,2013-03-14 10:42:00,
2013-03-14 04:52:00,48.0,5.0,-100.00,WNW,291,1.0,8.0,17,0.00,,,0.00,0.000000,,2013-03-14 10:52:00,
2013-03-14 05:01:00,48.0,7.0,-100.00,NNE,21,4.0,8.0,18,0.00,,,0.00,0.000000,,2013-03-14 11:01:00,
2013-03-14 05:22:00,48.0,7.0,-100.00,NNE,21,4.0,8.0,18,0.00,,,0.00,0.000000,,2013-03-14 11:22:00,
2013-03-14 05:33:00,48.0,7.0,-100.00,NNE,21,4.0,8.0,18,0.00,,,0.00,0.000000,,2013-03-14 11:33:00,
2013-03-14 05:42:00,48.0,7.0,-100.00,NNE,21,4.0,8.0,18,0.00,,,0.00,0.000000,,2013-03-14 11:42:00,
2013-03-14 05:52:00,48.0,7.0,-100.00,NNE,21,4.0,8.0,18,0.00,,,0.00,0.000000,,2013-03-14 11:52:00,
2013-03-14 06:01:00,49.0,7.0,-100.00,North,351,3.0,10.0,18,0.00,,,0.00,0.000000,,2013-03-14 12:01:00,
2013-03-14 06:33:00,49.0,7.0,-100.00,North,351,3.0,10.0,18,0.00,,,0.00,0.000000,,2013-03-14 12:33:00,
2013-03-14 06:43:00,49.0,7.0,-100.00,North,351,3.0,10.0,18,0.00,,,0.00,0.000000,,2013-03-14 12:43:00,
2013-03-14 06:52:00,49.0,7.0,-100.00,North,351,3.0,10.0,18,0.00,,,0.00,0.000000,,2013-03-14 12:52:00,
2013-03-14 07:01:00,49.0,9.0,-100.00,NNE,22,5.0,9.0,19,0.00,,,0.00,0.000000,,2013-03-14 13:01:00,
2013-03-14 07:32:00,49.0,9.0,-100.00,NNE,22,5.0,9.0,19,0.00,,,0.00,0.000000,,2013-03-14 13:32:00,
2013-03-14 07:43:00,49.0,9.0,-100.00,NNE,22,5.0,9.0,19,0.00,,,0.00,0.000000,,2013-03-14 13:43:00,
2013-03-14 07:52:00,49.0,9.0,-100.00,NNE,22,5.0,9.0,19,0.00,,,0.00,0.000000,,2013-03-14 13:52:00,
2013-03-14 08:01:00,48.0,9.0,-100.00,North,8,3.0,7.0,20,0.00,,,0.00,10.000000,,2013-03-14 14:01:00,
2013-03-14 08:22:00,48.0,9.0,-100.00,North,8,3.0,7.0,20,0.00,,,0.00,10.000000,,2013-03-14 14:22:00,
2013-03-14 08:32:00,48.0,9.0,-100.00,North,8,3.0,7.0,20,0.00,,,0.00,10.000000,,2013-03-14 14:32:00,
2013-03-14 08:42:00,48.0,9.0,-100.00,North,8,3.0,7.0,20,0.00,,,0.00,10.000000,,2013-03-14 14:42:00,
2013-03-14 08:53:00,48.0,9.0,-100.00,North,8,3.0,7.0,20,0.00,,,0.00,10.000000,,2013-03-14 14:53:00,
2013-03-14 09:01:00,60.0,12.0,-100.00,WNW,299,3.0,5.0,15,0.00,,,0.00,241.000000,,2013-03-14 15:01:00,
2013-03-14 09:22:00,60.0,12.0,-100.00,WNW,299,3.0,5.0,15,0.00,,,0.00,241.000000,,2013-03-14 15:22:00,
2013-03-14 09:33:00,60.0,12.0,-100.00,WNW,299,3.0,5.0,15,0.00,,,0.00,241.000000,,2013-03-14 15:33:00,
2013-03-14 09:43:00,60.0,12.0,-100.00,WNW,299,3.0,5.0,15,0.00,,,0.00,241.000000,,2013-03-14 15:43:00,
2013-03-14 09:52:00,60.0,12.0,-100.00,WNW,299,3.0,5.0,15,0.00,,,0.00,241.000000,,2013-03-14 15:52:00,
2013-03-14 10:01:00,66.0,12.0,-100.00,SSE,166,4.0,7.0,12,0.00,,,0.00,483.000000,,2013-03-14 16:01:00,
2013-03-14 10:23:00,66.0,12.0,-100.00,SSE,166,4.0,7.0,12,0.00,,,0.00,483.000000,,2013-03-14 16:23:00,
2013-03-14 10:33:00,66.0,12.0,-100.00,SSE,166,4.0,7.0,12,0.00,,,0.00,483.000000,,2013-03-14 16:33:00,
2013-03-14 10:42:00,66.0,12.0,-100.00,SSE,166,4.0,7.0,12,0.00,,,0.00,483.000000,,2013-03-14 16:42:00,
2013-03-14 10:52:00,66.0,12.0,-100.00,SSE,166,4.0,7.0,12,0.00,,,0.00,483.000000,,2013-03-14 16:52:00,
2013-03-14 11:01:00,65.0,11.0,-100.00,NNW,328,7.0,10.0,12,0.00,,,-99.99,684.000000,,2013-03-14 17:01:00,
2013-03-14 11:33:00,65.0,11.0,-100.00,NNW,328,7.0,10.0,12,0.00,,,-99.99,684.000000,,2013-03-14 17:33:00,
2013-03-14 11:42:00,65.0,11.0,-100.00,NNW,328,7.0,10.0,12,0.00,,,-99.99,684.000000,,2013-03-14 17:42:00,
2013-03-14 11:52:00,65.0,11.0,-100.00,NNW,328,7.0,10.0,12,0.00,,,-99.99,684.000000,,2013-03-14 17:52:00,
2013-03-14 12:01:00,68.0,12.0,-100.00,West,274,8.0,13.0,11,0.00,,,0.00,835.000000,,2013-03-14 18:01:00,
2013-03-14 12:23:00,68.0,12.0,-100.00,West,274,8.0,13.0,11,0.00,,,0.00,835.000000,,2013-03-14 18:23:00,
2013-03-14 12:33:00,68.0,12.0,-100.00,West,274,8.0,13.0,11,0.00,,,0.00,835.000000,,2013-03-14 18:33:00,
2013-03-14 12:43:00,68.0,12.0,-100.00,West,274,8.0,13.0,11,0.00,,,0.00,835.000000,,2013-03-14 18:43:00,
2013-03-14 12:52:00,68.0,12.0,-100.00,West,274,8.0,13.0,11,0.00,,,0.00,835.000000,,2013-03-14 18:52:00,
2013-03-14 13:01:00,70.0,11.0,-100.00,West,280,7.0,13.0,10,0.00,,,0.00,921.000000,,2013-03-14 19:01:00,
2013-03-14 13:23:00,70.0,11.0,-100.00,West,280,7.0,13.0,10,0.00,,,0.00,921.000000,,2013-03-14 19:23:00,
2013-03-14 13:32:00,70.0,11.0,-100.00,West,280,7.0,13.0,10,0.00,,,0.00,921.000000,,2013-03-14 19:32:00,
2013-03-14 13:43:00,70.0,11.0,-100.00,West,280,7.0,13.0,10,0.00,,,0.00,921.000000,,2013-03-14 19:43:00,
2013-03-14 13:52:00,70.0,11.0,-100.00,West,280,7.0,13.0,10,0.00,,,0.00,921.000000,,2013-03-14 19:52:00,
2013-03-14 14:01:00,72.0,10.0,-100.00,SSW,208,6.0,14.0,9,0.00,,,0.00,937.000000,,2013-03-14 20:01:00,
2013-03-14 14:32:00,72.0,10.0,-100.00,SSW,208,6.0,14.0,9,0.00,,,0.00,937.000000,,2013-03-14 20:32:00,
2013-03-14 14:42:00,72.0,10.0,-100.00,SSW,208,6.0,14.0,9,0.00,,,0.00,937.000000,,2013-03-14 20:42:00,
2013-03-14 14:52:00,72.0,10.0,-100.00,SSW,208,6.0,14.0,9,0.00,,,0.00,937.000000,,2013-03-14 20:52:00,
2013-03-14 15:01:00,72.0,7.0,-100.00,North,354,6.0,14.0,8,0.00,,,0.00,877.000000,,2013-03-14 21:01:00,
2013-03-14 15:33:00,72.0,7.0,-100.00,North,354,6.0,14.0,8,0.00,,,0.00,877.000000,,2013-03-14 21:33:00,
2013-03-14 15:43:00,72.0,7.0,-100.00,North,354,6.0,14.0,8,0.00,,,0.00,877.000000,,2013-03-14 21:43:00,
2013-03-14 15:53:00,72.0,7.0,-100.00,North,354,6.0,14.0,8,0.00,,,0.00,877.000000,,2013-03-14 21:53:00,
2013-03-14 16:01:00,73.0,11.0,-100.00,WSW,255,7.0,14.0,9,0.00,,,0.00,751.000000,,2013-03-14 22:01:00,
2013-03-14 16:23:00,73.0,11.0,-100.00,WSW,255,7.0,14.0,9,0.00,,,0.00,751.000000,,2013-03-14 22:23:00,
2013-03-14 16:33:00,73.0,11.0,-100.00,WSW,255,7.0,14.0,9,0.00,,,0.00,751.000000,,2013-03-14 22:33:00,
2013-03-14 16:42:00,73.0,11.0,-100.00,WSW,255,7.0,14.0,9,0.00,,,0.00,751.000000,,2013-03-14 22:42:00,
2013-03-14 16:52:00,73.0,11.0,-100.00,WSW,255,7.0,14.0,9,0.00,,,0.00,751.000000,,2013-03-14 22:52:00,
2013-03-14 17:01:00,73.0,11.0,-100.00,West,280,6.0,14.0,9,0.00,,,0.00,571.000000,,2013-03-14 23:01:00,
2013-03-14 17:33:00,73.0,11.0,-100.00,West,280,6.0,14.0,9,0.00,,,0.00,571.000000,,2013-03-14 23:33:00,
2013-03-14 17:43:00,73.0,11.0,-100.00,West,280,6.0,14.0,9,0.00,,,0.00,571.000000,,2013-03-14 23:43:00,
2013-03-14 17:53:00,73.0,11.0,-100.00,West,280,6.0,14.0,9,0.00,,,0.00,571.000000,,2013-03-14 23:53:00,
2013-03-14 18:01:00,72.0,10.0,-100.00,WSW,246,6.0,12.0,9,0.00,,,0.00,355.000000,,2013-03-15 00:01:00,
2013-03-14 18:33:00,72.0,10.0,-100.00,WSW,246,6.0,12.0,9,0.00,,,0.00,355.000000,,2013-03-15 00:33:00,
2013-03-14 18:43:00,72.0,10.0,-100.00,WSW,246,6.0,12.0,9,0.00,,,0.00,355.000000,,2013-03-15 00:43:00,
2013-03-14 18:52:00,72.0,10.0,-100.00,WSW,246,6.0,12.0,9,0.00,,,0.00,355.000000,,2013-03-15 00:52:00,
2013-03-14 19:01:00,67.0,9.0,-100.00,WNW,289,3.0,7.0,10,0.00,,,0.00,122.000000,,2013-03-15 01:01:00,
2013-03-14 19:33:00,67.0,9.0,-100.00,WNW,289,3.0,7.0,10,0.00,,,0.00,122.000000,,2013-03-15 01:33:00,
2013-03-14 19:43:00,67.0,9.0,-100.00,WNW,289,3.0,7.0,10,0.00,,,0.00,122.000000,,2013-03-15 01:43:00,
2013-03-14 19:52:00,67.0,9.0,-100.00,WNW,289,3.0,7.0,10,0.00,,,0.00,122.000000,,2013-03-15 01:52:00,
2013-03-14 20:01:00,56.0,7.0,-100.00,NE,36,2.0,4.0,14,0.00,,,0.00,3.000000,,2013-03-15 02:01:00,
2013-03-14 20:22:00,56.0,7.0,-100.00,NE,36,2.0,4.0,14,0.00,,,0.00,3.000000,,2013-03-15 02:22:00,
2013-03-14 20:32:00,56.0,7.0,-100.00,NE,36,2.0,4.0,14,0.00,,,0.00,3.000000,,2013-03-15 02:32:00,
2013-03-14 20:42:00,56.0,7.0,-100.00,NE,36,2.0,4.0,14,0.00,,,0.00,3.000000,,2013-03-15 02:42:00,
2013-03-14 20:52:00,56.0,7.0,-100.00,NE,36,2.0,4.0,14,0.00,,,0.00,3.000000,,2013-03-15 02:52:00,
2013-03-14 21:01:00,56.0,9.0,-100.00,NNE,18,4.0,7.0,15,0.00,,,0.00,0.000000,,2013-03-15 03:01:00,
2013-03-14 21:33:00,56.0,9.0,-100.00,NNE,18,4.0,7.0,15,0.00,,,0.00,0.000000,,2013-03-15 03:33:00,
2013-03-14 21:43:00,56.0,9.0,-100.00,NNE,18,4.0,7.0,15,0.00,,,0.00,0.000000,,2013-03-15 03:43:00,
2013-03-14 21:53:00,56.0,9.0,-100.00,NNE,18,4.0,7.0,15,0.00,,,0.00,0.000000,,2013-03-15 03:53:00,
2013-03-14 22:01:00,56.0,10.0,-100.00,NNE,30,5.0,7.0,16,0.00,,,0.00,0.000000,,2013-03-15 04:01:00,
2013-03-14 22:33:00,56.0,10.0,-100.00,NNE,30,5.0,7.0,16,0.00,,,0.00,0.000000,,2013-03-15 04:33:00,
2013-03-14 22:43:00,56.0,10.0,-100.00,NNE,30,5.0,7.0,16,0.00,,,0.00,0.000000,,2013-03-15 04:43:00,
2013-03-14 22:53:00,56.0,10.0,-100.00,NNE,30,5.0,7.0,16,0.00,,,0.00,0.000000,,2013-03-15 04:53:00,
2013-03-14 23:01:00,55.0,8.0,-100.00,NNE,20,5.0,7.0,15,0.00,,,0.00,0.000000,,2013-03-15 05:01:00,
2013-03-14 23:23:00,55.0,8.0,-100.00,NNE,20,5.0,7.0,15,0.00,,,0.00,0.000000,,2013-03-15 05:23:00,
2013-03-14 23:32:00,55.0,8.0,-100.00,NNE,20,5.0,7.0,15,0.00,,,0.00,0.000000,,2013-03-15 05:32:00,
2013-03-14 23:42:00,55.0,8.0,-100.00,NNE,20,5.0,7.0,15,0.00,,,0.00,0.000000,,2013-03-15 05:42:00,
2013-03-14 23:52:00,55.0,8.0,-100.00,NNE,20,5.0,7.0,15,0.00,,,0.00,0.000000,,2013-03-15 05:52:00,